Time;durP1;ratioP1;P1;durP2;ratioP2;P2;SDS_P1;SDS_P2;PMS_P1;PMS_P2;Temp;Humidity;BMP_temperature;BMP_pressure;BME280_temperature;BME280_humidity;BME280_pressure;Samples;Min_cycle;Max_cycle;Signal;HPM_P1;HPM_P2
2023/09/01 00:01:31;;;;;;;0.10;0.10;;;;;;;22.31;57.73;101315.38;4975776;28;20037;-90
2023/09/01 00:03:57;;;;;;;0.10;0.10;;;;;;;22.32;57.48;101311.81;4975394;28;20511;-91
2023/09/01 00:06:22;;;;;;;0.10;0.10;;;;;;;22.29;57.81;101301.50;4959614;28;20022;-89
2023/09/01 00:08:48;;;;;;;0.10;0.10;;;;;;;22.32;57.38;101301.25;4991790;28;20034;-90
2023/09/01 00:11:13;;;;;;;0.10;0.10;;;;;;;22.24;57.95;101306.34;4991746;28;20085;-90
2023/09/01 00:13:39;;;;;;;0.10;0.10;;;;;;;22.33;57.60;101313.47;4975182;28;20081;-89
2023/09/01 00:16:04;;;;;;;0.10;0.10;;;;;;;22.32;57.90;101312.63;4975083;28;20088;-91
2023/09/01 00:18:30;;;;;;;0.10;0.10;;;;;;;22.13;58.33;101296.75;4991618;28;20050;-89
2023/09/01 00:21:03;;;;;;;0.10;0.10;;;;;;;22.03;58.79;101304.59;4975374;28;20023;-89
2023/09/01 00:23:29;;;;;;;0.10;0.10;;;;;;;22.11;58.77;101296.03;4975538;28;20031;-90
2023/09/01 00:25:55;;;;;;;0.10;0.10;;;;;;;22.18;59.01;101298.97;4958893;28;20030;-90
2023/09/01 00:28:21;;;;;;;0.10;0.10;;;;;;;22.22;58.55;101301.22;4975301;28;20023;-90
2023/09/01 00:30:57;;;;;;;0.20;0.20;;;;;;;22.16;58.68;101296.47;4959314;28;20037;-90
2023/09/01 00:33:24;;;;;;;0.10;0.10;;;;;;;22.13;58.92;101293.28;4960007;28;20117;-90
2023/09/01 00:35:51;;;;;;;0.10;0.10;;;;;;;22.15;59.13;101304.53;4959477;28;20503;-91
2023/09/01 00:38:16;;;;;;;0.20;0.20;;;;;;;22.12;58.97;101302.13;4975119;28;20088;-90
2023/09/01 00:40:42;;;;;;;0.10;0.10;;;;;;;22.17;58.96;101287.59;4958508;28;20030;-89
2023/09/01 00:43:07;;;;;;;0.10;0.10;;;;;;;22.16;59.37;101300.91;4991192;28;20034;-89
2023/09/01 00:45:33;;;;;;;0.10;0.10;;;;;;;22.15;59.42;101294.81;4958623;28;20041;-89
2023/09/01 00:47:59;;;;;;;0.10;0.10;;;;;;;22.08;59.55;101292.84;4975242;28;20042;-89
2023/09/01 00:50:24;;;;;;;0.10;0.10;;;;;;;22.02;59.63;101289.75;4974909;28;20026;-89
2023/09/01 00:52:50;;;;;;;0.10;0.10;;;;;;;22.05;59.68;101300.00;4990795;28;20022;-89
2023/09/01 00:55:15;;;;;;;0.10;0.10;;;;;;;22.01;59.71;101288.06;4974560;28;20041;-89
2023/09/01 00:57:41;;;;;;;0.10;0.10;;;;;;;22.12;59.81;101315.31;4958734;28;20085;-89
2023/09/01 01:00:06;;;;;;;0.10;0.10;;;;;;;21.99;59.74;101278.63;4973832;28;20035;-90
2023/09/01 01:02:32;;;;;;;0.10;0.10;;;;;;;22.16;59.98;101306.19;4974618;28;20496;-90
2023/09/01 01:04:58;;;;;;;0.17;0.17;;;;;;;22.19;59.75;101308.53;4974681;28;20034;-90
2023/09/01 01:07:30;;;;;;;0.10;0.10;;;;;;;22.14;59.78;101287.03;4974378;28;20030;-90
2023/09/01 01:10:18;;;;;;;0.10;0.10;;;;;;;22.18;59.99;101306.88;4958728;28;20039;-90
2023/09/01 01:12:56;;;;;;;0.10;0.10;;;;;;;22.02;60.13;101281.84;4974927;28;20030;-89
2023/09/01 01:15:22;;;;;;;0.20;0.20;;;;;;;22.14;60.04;101300.22;4974434;28;20408;-89
2023/09/01 01:17:47;;;;;;;0.10;0.10;;;;;;;22.20;60.16;101312.84;4958357;28;20479;-90
2023/09/01 01:20:31;;;;;;;0.10;0.10;;;;;;;22.13;60.12;101311.72;4958375;28;20034;-90
2023/09/01 01:23:11;;;;;;;0.10;0.10;;;;;;;22.03;60.48;101306.41;4974538;28;20469;-88
2023/09/01 01:25:47;;;;;;;0.10;0.10;;;;;;;21.99;60.88;101305.81;4990378;28;20034;-89
2023/09/01 01:28:12;;;;;;;0.10;0.10;;;;;;;22.02;60.49;101317.88;4975651;28;20045;-92
2023/09/01 01:30:38;;;;;;;0.20;0.20;;;;;;;22.08;60.98;101324.47;4974533;28;20026;-90
2023/09/01 01:33:04;;;;;;;0.10;0.10;;;;;;;22.03;60.71;101322.19;4974364;28;20862;-90
2023/09/01 01:35:29;;;;;;;0.10;0.10;;;;;;;22.05;60.96;101325.53;4958256;28;20104;-89
2023/09/01 01:38:13;;;;;;;0.10;0.10;;;;;;;22.00;61.40;101331.19;4990363;28;20027;-90
2023/09/01 01:40:38;;;;;;;0.10;0.10;;;;;;;21.98;61.32;101332.28;4989933;28;20035;-89
2023/09/01 01:43:04;;;;;;;0.10;0.10;;;;;;;21.95;61.47;101325.50;4957993;28;20022;-91
2023/09/01 01:45:30;;;;;;;0.10;0.10;;;;;;;21.84;61.93;101317.66;4973977;28;20057;-90
2023/09/01 01:47:55;;;;;;;0.10;0.10;;;;;;;21.82;61.74;101310.84;4974391;28;20026;-89
2023/09/01 01:50:21;;;;;;;0.10;0.10;;;;;;;21.83;61.75;101326.53;4974382;28;20503;-91
2023/09/01 01:52:46;;;;;;;0.10;0.10;;;;;;;21.68;62.06;101307.59;4973906;28;20026;-89
2023/09/01 01:55:11;;;;;;;0.10;0.10;;;;;;;21.76;61.54;101304.31;5006327;28;20480;-90
2023/09/01 01:57:37;;;;;;;0.10;0.10;;;;;;;21.86;61.98;101321.00;4957978;28;20464;-90
2023/09/01 02:00:04;;;;;;;0.10;0.10;;;;;;;21.77;61.97;101321.78;4989948;28;20033;-89
2023/09/01 02:02:29;;;;;;;0.15;0.15;;;;;;;21.73;62.24;101315.13;4974310;28;20412;-90
2023/09/01 02:04:55;;;;;;;0.10;0.10;;;;;;;21.73;62.10;101328.28;4958075;28;20507;-88
2023/09/01 02:07:20;;;;;;;0.10;0.10;;;;;;;21.67;62.39;101324.38;4974208;28;20035;-89
2023/09/01 02:09:46;;;;;;;0.10;0.10;;;;;;;21.68;62.35;101328.66;4973704;28;20027;-89
2023/09/01 02:12:11;;;;;;;0.10;0.10;;;;;;;21.67;62.78;101320.91;4960462;28;20034;-90
2023/09/01 02:14:36;;;;;;;0.10;0.10;;;;;;;21.63;62.42;101330.00;4977501;28;20030;-90
2023/09/01 02:17:06;;;;;;;0.10;0.10;;;;;;;21.58;62.77;101325.13;4977690;28;20033;-90
2023/09/01 02:19:32;;;;;;;0.10;0.10;;;;;;;21.57;63.07;101330.53;4962669;28;20050;-91
2023/09/01 02:21:57;;;;;;;0.10;0.10;;;;;;;21.58;62.88;101329.56;4977401;28;20555;-90
2023/09/01 02:24:23;;;;;;;0.10;0.10;;;;;;;21.58;62.84;101326.94;4977423;28;20038;-89
2023/09/01 02:26:48;;;;;;;0.10;0.10;;;;;;;21.55;63.25;101337.75;4961573;28;20089;-91
2023/09/01 02:29:14;;;;;;;0.10;0.10;;;;;;;21.54;62.85;101331.63;4977493;28;20018;-90
2023/09/01 02:31:39;;;;;;;0.10;0.10;;;;;;;21.42;63.31;101328.22;4961422;28;20046;-89
2023/09/01 02:34:05;;;;;;;0.10;0.10;;;;;;;21.36;63.43;101323.47;4961142;28;20027;-90
2023/09/01 02:36:34;;;;;;;0.10;0.10;;;;;;;21.04;64.32;101306.84;4961270;28;20046;-90
2023/09/01 02:39:00;;;;;;;0.10;0.10;;;;;;;21.07;64.32;101320.59;4977409;28;20018;-91
2023/09/01 02:41:25;;;;;;;0.10;0.10;;;;;;;21.10;64.22;101324.75;4977352;28;20091;-90
2023/09/01 02:43:51;;;;;;;0.10;0.10;;;;;;;20.99;64.84;101314.28;4977355;28;20480;-90
2023/09/01 02:46:16;;;;;;;0.10;0.10;;;;;;;20.80;65.01;101297.38;4977002;28;20069;-90
2023/09/01 02:48:42;;;;;;;0.10;0.10;;;;;;;21.09;65.00;101323.09;4977166;28;20481;-91
2023/09/01 02:51:07;;;;;;;0.10;0.10;;;;;;;21.00;64.85;101323.84;4977017;28;20061;-88
2023/09/01 02:53:34;;;;;;;0.10;0.10;;;;;;;20.98;64.89;101320.50;4977135;28;20117;-90
2023/09/01 02:56:00;;;;;;;0.13;0.13;;;;;;;20.85;65.09;101318.06;4976788;28;20029;-87
2023/09/01 02:58:25;;;;;;;0.10;0.10;;;;;;;20.92;64.99;101322.66;4976419;28;20521;-87
2023/09/01 03:00:51;;;;;;;0.20;0.20;;;;;;;20.96;64.96;101310.13;4976523;28;20037;-88
2023/09/01 03:03:19;;;;;;;0.10;0.10;;;;;;;20.94;64.89;101322.53;4976325;28;20481;-86
2023/09/01 03:05:44;;;;;;;0.10;0.10;;;;;;;20.85;65.26;101313.63;4976399;28;20027;-87
2023/09/01 03:08:11;;;;;;;0.20;0.20;;;;;;;20.87;65.08;101309.06;4960365;28;20033;-87
2023/09/01 03:10:37;;;;;;;0.10;0.10;;;;;;;21.04;65.06;101317.34;4960355;28;20050;-87
2023/09/01 03:13:03;;;;;;;0.10;0.10;;;;;;;20.89;65.05;101312.41;4960184;28;20061;-88
2023/09/01 03:15:28;;;;;;;0.10;0.10;;;;;;;20.83;65.59;101325.19;4992647;28;20030;-87
2023/09/01 03:17:54;;;;;;;0.10;0.10;;;;;;;20.71;66.10;101321.78;4976155;28;20424;-87
2023/09/01 03:20:19;;;;;;;0.10;0.10;;;;;;;20.63;66.40;101329.44;4991742;28;20480;-87
2023/09/01 03:22:45;;;;;;;0.20;0.20;;;;;;;20.71;66.15;101326.19;5007774;28;20412;-87
2023/09/01 03:25:10;;;;;;;0.20;0.20;;;;;;;20.59;66.64;101322.78;4975957;28;20037;-87
2023/09/01 03:27:39;;;;;;;0.10;0.10;;;;;;;20.40;67.37;101318.09;4975956;28;20089;-87
2023/09/01 03:30:08;;;;;;;0.20;0.20;;;;;;;20.45;67.53;101333.53;4992075;28;20022;-87
2023/09/01 03:32:33;;;;;;;0.20;0.20;;;;;;;20.43;67.41;101327.56;4976315;28;20069;-88
2023/09/01 03:35:02;;;;;;;0.10;0.10;;;;;;;20.43;67.72;101324.94;4975887;28;20035;-87
2023/09/01 03:37:28;;;;;;;0.17;0.17;;;;;;;20.45;67.55;101336.16;4992039;28;20534;-88
2023/09/01 03:39:53;;;;;;;0.10;0.10;;;;;;;20.39;68.09;101340.09;4959697;28;20038;-87
2023/09/01 03:42:19;;;;;;;0.10;0.10;;;;;;;20.30;67.76;101325.03;4991906;28;20507;-87
2023/09/01 03:44:44;;;;;;;0.20;0.20;;;;;;;20.38;68.10;101345.47;4948970;28;20051;-87
2023/09/01 03:47:09;;;;;;;0.10;0.10;;;;;;;20.38;68.30;101342.84;4921017;29;20028;-86
2023/09/01 03:49:35;;;;;;;0.10;0.10;;;;;;;20.39;68.58;101350.59;4952690;29;20391;-87
2023/09/01 03:52:01;;;;;;;0.10;0.10;;;;;;;20.26;68.50;101342.84;4921888;29;20023;-87
2023/09/01 03:54:26;;;;;;;0.10;0.10;;;;;;;20.28;68.49;101340.09;4921519;29;20481;-89
2023/09/01 03:56:52;;;;;;;0.10;0.10;;;;;;;20.33;68.42;101348.44;4921448;29;20035;-91
2023/09/01 03:59:18;;;;;;;0.10;0.10;;;;;;;20.14;68.85;101328.03;4921043;29;20481;-88
2023/09/01 04:01:44;;;;;;;0.20;0.20;;;;;;;20.15;68.91;101336.75;4937066;29;20034;-87
2023/09/01 04:04:09;;;;;;;0.10;0.10;;;;;;;20.11;68.69;101330.91;4936324;29;20031;-89
2023/09/01 04:06:35;;;;;;;0.10;0.10;;;;;;;20.24;68.42;101349.16;4920500;29;20387;-89
2023/09/01 04:09:00;;;;;;;0.10;0.10;;;;;;;20.17;68.72;101342.75;4920427;29;20031;-88
2023/09/01 04:11:25;;;;;;;0.10;0.10;;;;;;;20.26;69.04;101353.38;4937840;28;20035;-92
2023/09/01 04:13:51;;;;;;;0.10;0.10;;;;;;;20.12;69.12;101344.88;4971628;28;20038;-87
2023/09/01 04:16:16;;;;;;;0.10;0.10;;;;;;;19.85;70.08;101342.56;4954683;28;20026;-85
2023/09/01 04:18:42;;;;;;;0.10;0.10;;;;;;;20.03;69.81;101362.16;4969628;28;20055;-83
2023/09/01 04:21:07;;;;;;;0.10;0.10;;;;;;;19.95;70.16;101369.78;4953462;28;20042;-87
2023/09/01 04:23:33;;;;;;;0.10;0.10;;;;;;;19.97;69.81;101365.28;4955897;28;20031;-90
2023/09/01 04:26:00;;;;;;;0.10;0.10;;;;;;;19.89;70.27;101375.53;4955428;28;20493;-85
2023/09/01 04:28:26;;;;;;;0.10;0.10;;;;;;;20.00;69.80;101380.81;4955147;28;20042;-86
2023/09/01 04:30:51;;;;;;;0.10;0.10;;;;;;;19.99;69.76;101377.34;4954439;28;20039;-86
2023/09/01 04:33:17;;;;;;;0.10;0.10;;;;;;;20.10;69.35;101386.19;4955277;28;20473;-86
2023/09/01 04:35:43;;;;;;;0.10;0.10;;;;;;;20.21;69.39;101379.16;4954599;28;20030;-91
2023/09/01 04:38:08;;;;;;;0.20;0.20;;;;;;;20.19;69.14;101378.44;4956280;28;20035;-90
2023/09/01 04:40:34;;;;;;;0.20;0.20;;;;;;;20.24;68.83;101375.44;4939562;28;20037;-93
2023/09/01 04:42:59;;;;;;;0.10;0.10;;;;;;;20.25;68.07;101362.16;4955105;28;20039;-88
2023/09/01 04:45:25;;;;;;;0.15;0.15;;;;;;;20.39;68.20;101383.94;4961531;28;20043;-87
2023/09/01 04:47:51;;;;;;;0.20;0.20;;;;;;;20.45;67.65;101389.59;4971955;28;20038;-90
2023/09/01 04:50:16;;;;;;;0.10;0.10;;;;;;;20.39;67.74;101386.56;4954746;28;20023;-85
2023/09/01 04:52:42;;;;;;;0.10;0.10;;;;;;;20.50;67.62;101381.31;4937941;28;20417;-89
2023/09/01 04:55:08;;;;;;;0.10;0.10;;;;;;;20.31;67.24;101348.56;4954445;28;20027;-85
2023/09/01 04:57:35;;;;;;;0.10;0.10;;;;;;;20.73;66.72;101393.47;4973616;28;20500;-86
2023/09/01 05:00:02;;;;;;;0.20;0.20;;;;;;;20.82;66.31;101386.66;4974576;28;20098;-91
2023/09/01 05:02:28;;;;;;;0.20;0.20;;;;;;;20.92;66.18;101388.41;4953643;28;20037;-87
2023/09/01 05:04:53;;;;;;;0.10;0.10;;;;;;;20.99;65.83;101393.19;4953959;28;20030;-90
2023/09/01 05:07:19;;;;;;;0.10;0.10;;;;;;;21.13;65.40;101393.72;4971836;28;20042;-89
2023/09/01 05:09:44;;;;;;;0.10;0.10;;;;;;;21.24;65.42;101392.88;4952953;28;20647;-90
2023/09/01 05:12:09;;;;;;;0.10;0.10;;;;;;;21.30;65.35;101396.81;4969841;28;20038;-90
2023/09/01 05:14:35;;;;;;;0.20;0.20;;;;;;;21.33;64.81;101392.13;4954703;28;20027;-91
2023/09/01 05:17:00;;;;;;;0.10;0.10;;;;;;;21.31;65.16;101396.69;4969761;28;20038;-90
2023/09/01 05:19:26;;;;;;;0.10;0.10;;;;;;;21.40;65.39;101393.31;4955363;28;20101;-89
2023/09/01 05:21:51;;;;;;;0.10;0.10;;;;;;;21.31;65.41;101388.81;4970450;28;20038;-92
2023/09/01 05:24:17;;;;;;;0.10;0.10;;;;;;;21.42;64.63;101387.91;4969518;28;20035;-89
2023/09/01 05:26:42;;;;;;;0.10;0.10;;;;;;;21.47;64.03;101380.50;4956007;28;20033;-89
2023/09/01 05:29:08;;;;;;;0.10;0.10;;;;;;;21.46;63.89;101377.03;4972086;28;20503;-87
2023/09/01 05:31:33;;;;;;;0.10;0.10;;;;;;;21.56;63.41;101386.78;4971447;28;20031;-91
2023/09/01 05:33:58;;;;;;;0.15;0.15;;;;;;;21.58;63.54;101390.13;4957598;28;20049;-93
2023/09/01 05:36:24;;;;;;;0.10;0.10;;;;;;;21.59;63.16;101389.16;4959664;28;20038;-89
2023/09/01 05:38:49;;;;;;;0.17;0.17;;;;;;;21.74;62.80;101395.78;4939344;28;20027;-89
2023/09/01 05:41:15;;;;;;;0.10;0.10;;;;;;;21.80;62.42;101381.25;4956837;28;20037;-86
2023/09/01 05:43:40;;;;;;;0.10;0.10;;;;;;;21.85;62.13;101390.47;4959335;28;20089;-87
2023/09/01 05:46:06;;;;;;;0.10;0.10;;;;;;;21.96;62.01;101400.91;4965827;28;20101;-91
2023/09/01 05:48:31;;;;;;;0.10;0.10;;;;;;;22.05;61.54;101388.75;4962106;28;20034;-88
2023/09/01 05:50:56;;;;;;;0.10;0.10;;;;;;;22.03;61.49;101402.06;4987998;28;20532;-91
2023/09/01 05:53:22;;;;;;;0.10;0.10;;;;;;;22.11;61.73;101397.97;4955615;28;20035;-90
2023/09/01 05:55:47;;;;;;;0.10;0.10;;;;;;;22.22;61.15;101395.25;4959407;28;20074;-87
2023/09/01 05:58:13;;;;;;;0.10;0.10;;;;;;;22.30;60.43;101398.88;4971555;28;20031;-86
2023/09/01 06:00:38;;;;;;;0.10;0.10;;;;;;;22.33;59.60;101401.28;4977239;28;20390;-87
2023/09/01 06:03:04;;;;;;;0.10;0.10;;;;;;;22.50;60.13;101412.97;4971190;28;20035;-91
2023/09/01 06:05:30;;;;;;;0.10;0.10;;;;;;;22.53;59.52;101407.47;4981556;28;20054;-87
2023/09/01 06:07:56;;;;;;;0.10;0.10;;;;;;;22.67;59.36;101413.31;4970676;28;20023;-88
2023/09/01 06:10:21;;;;;;;0.10;0.10;;;;;;;22.85;59.00;101415.22;4955668;28;20023;-89
2023/09/01 06:12:47;;;;;;;0.10;0.10;;;;;;;22.90;57.82;101417.44;4969878;28;20075;-88
2023/09/01 06:15:12;;;;;;;0.10;0.10;;;;;;;22.86;57.56;101410.78;4956377;28;20030;-88
2023/09/01 06:17:38;;;;;;;0.10;0.10;;;;;;;22.97;56.80;101410.66;4973172;28;20062;-91
2023/09/01 06:20:06;;;;;;;0.10;0.10;;;;;;;23.09;56.27;101412.19;4973369;28;20026;-90
2023/09/01 06:22:36;;;;;;;0.10;0.10;;;;;;;23.18;56.27;101416.66;4959308;28;20143;-92
2023/09/01 06:25:02;;;;;;;0.10;0.10;;;;;;;23.28;56.06;101410.53;4960172;28;20133;-91
2023/09/01 06:27:28;;;;;;;0.10;0.10;;;;;;;23.32;54.90;101406.66;4976273;28;20109;-90
2023/09/01 06:29:56;;;;;;;0.10;0.10;;;;;;;23.33;54.91;101411.81;4957610;28;20034;-93
2023/09/01 06:32:22;;;;;;;0.10;0.10;;;;;;;23.38;54.69;101416.66;4973465;28;20035;-93
2023/09/01 06:34:47;;;;;;;0.10;0.10;;;;;;;23.25;54.29;101390.53;4956936;28;20544;-89
2023/09/01 06:37:13;;;;;;;0.20;0.20;;;;;;;23.47;54.23;101414.03;4972907;28;20522;-86
2023/09/01 06:39:38;;;;;;;0.20;0.20;;;;;;;23.53;54.21;101423.19;4972350;28;20042;-86
2023/09/01 06:42:06;;;;;;;0.17;0.17;;;;;;;23.62;52.58;101430.31;4974016;28;20035;-89
2023/09/01 06:44:31;;;;;;;0.10;0.10;;;;;;;23.56;52.56;101428.19;4942210;28;20039;-89
2023/09/01 06:46:57;;;;;;;0.10;0.10;;;;;;;23.69;52.62;101430.56;4946469;28;20058;-87
2023/09/01 06:49:22;;;;;;;0.10;0.10;;;;;;;23.80;52.47;101422.53;4975737;28;20034;-87
2023/09/01 06:51:48;;;;;;;0.10;0.10;;;;;;;23.88;51.99;101411.22;4977478;28;20039;-86
2023/09/01 06:54:13;;;;;;;0.10;0.10;;;;;;;24.07;51.53;101421.75;4976019;28;20449;-94
2023/09/01 06:56:39;;;;;;;0.10;0.10;;;;;;;24.11;51.94;101409.94;4959169;28;20113;-89
2023/09/01 06:59:04;;;;;;;0.20;0.20;;;;;;;24.27;51.16;101420.69;4977583;28;20034;-88
2023/09/01 07:01:29;;;;;;;0.10;0.10;;;;;;;24.35;50.60;101425.31;4975816;28;20031;-90
2023/09/01 07:03:55;;;;;;;0.10;0.10;;;;;;;24.39;49.89;101434.63;4981500;28;20038;-87
2023/09/01 07:06:20;;;;;;;0.10;0.10;;;;;;;24.49;49.69;101445.19;4975237;28;20039;-91
2023/09/01 07:08:46;;;;;;;0.10;0.10;;;;;;;24.61;50.07;101446.66;4959599;28;20038;-91
2023/09/01 07:11:14;;;;;;;0.10;0.10;;;;;;;24.73;49.36;101437.53;4952732;28;20035;-91
2023/09/01 07:13:40;;;;;;;0.20;0.20;;;;;;;24.83;49.44;101448.91;4956981;28;20045;-87
2023/09/01 07:16:06;;;;;;;0.10;0.10;;;;;;;24.95;49.64;101453.97;4977331;28;20031;-93
2023/09/01 07:18:32;;;;;;;0.17;0.17;;;;;;;25.06;49.28;101449.34;4975682;28;20190;-93
2023/09/01 07:20:58;;;;;;;0.20;0.20;;;;;;;25.20;47.58;101450.66;4944588;28;20042;-87
2023/09/01 07:23:24;;;;;;;0.20;0.20;;;;;;;25.26;47.77;101455.31;4974428;28;20078;-89
2023/09/01 07:25:49;;;;;;;0.10;0.10;;;;;;;25.35;47.12;101454.44;4955394;28;20035;-88
2023/09/01 07:28:14;;;;;;;0.20;0.20;;;;;;;25.42;45.85;101444.06;4975606;28;20027;-88
2023/09/01 07:30:40;;;;;;;0.10;0.10;;;;;;;25.44;45.70;101458.81;4959600;28;20034;-86
2023/09/01 07:33:06;;;;;;;0.20;0.20;;;;;;;25.42;45.86;101466.09;4961816;28;20130;-93
2023/09/01 07:35:31;;;;;;;0.20;0.20;;;;;;;25.49;46.26;101452.25;4960328;28;20030;-89
2023/09/01 07:37:57;;;;;;;0.15;0.15;;;;;;;25.78;45.62;101476.72;4960205;28;20058;-86
2023/09/01 07:40:23;;;;;;;0.20;0.20;;;;;;;25.88;45.30;101474.81;4960985;28;20045;-89
2023/09/01 07:42:48;;;;;;;0.20;0.20;;;;;;;25.87;44.16;101486.41;4975102;28;20067;-90
2023/09/01 07:45:20;;;;;;;0.20;0.20;;;;;;;25.73;44.61;101463.06;4962840;28;20037;-94
2023/09/01 07:47:48;;;;;;;0.20;0.20;;;;;;;25.96;45.08;101474.88;4955683;28;20039;-92
2023/09/01 07:50:13;;;;;;;0.20;0.20;;;;;;;25.99;44.43;101474.56;4975740;28;20041;-92
2023/09/01 07:52:39;;;;;;;0.20;0.20;;;;;;;26.17;45.06;101476.34;4954828;28;20043;-94
2023/09/01 07:55:05;;;;;;;0.20;0.20;;;;;;;26.33;43.68;101486.19;4973305;28;20034;-92
2023/09/01 07:57:31;;;;;;;0.20;0.20;;;;;;;26.31;43.09;101483.69;4972412;28;20027;-92
2023/09/01 07:59:57;;;;;;;0.20;0.20;;;;;;;26.48;43.26;101482.84;4958992;28;20046;-92
2023/09/01 08:02:22;;;;;;;0.10;0.10;;;;;;;26.53;43.58;101485.84;4961278;28;20438;-88
2023/09/01 08:04:47;;;;;;;0.10;0.10;;;;;;;26.43;42.88;101440.03;4976307;28;20070;-88
2023/09/01 08:07:13;;;;;;;0.20;0.20;;;;;;;26.57;43.46;101484.56;4960128;28;20034;-88
2023/09/01 08:09:38;;;;;;;0.20;0.20;;;;;;;26.72;42.58;101489.25;4973886;28;20035;-87
2023/09/01 08:12:04;;;;;;;0.20;0.20;;;;;;;26.64;42.48;101484.72;4976009;28;20042;-90
2023/09/01 08:14:31;;;;;;;0.13;0.13;;;;;;;26.61;42.38;101487.72;4980292;28;20051;-87
2023/09/01 08:16:56;;;;;;;0.20;0.20;;;;;;;26.77;42.16;101471.88;4976948;28;20042;-86
2023/09/01 08:19:22;;;;;;;0.20;0.20;;;;;;;26.79;42.24;101485.81;4963221;28;20058;-85
2023/09/01 08:21:48;;;;;;;0.20;0.20;;;;;;;26.91;42.37;101494.31;4978827;28;20039;-91
2023/09/01 08:24:14;;;;;;;0.20;0.20;;;;;;;27.04;41.88;101502.69;4974167;28;20501;-91
2023/09/01 08:26:40;;;;;;;0.20;0.20;;;;;;;27.03;41.55;101486.91;4954002;28;20038;-87
2023/09/01 08:29:05;;;;;;;0.20;0.20;;;;;;;27.04;40.59;101486.75;4967928;28;20026;-93
2023/09/01 08:31:32;;;;;;;0.20;0.20;;;;;;;27.06;41.68;101492.75;4975687;28;20030;-89
2023/09/01 08:33:57;;;;;;;0.20;0.20;;;;;;;27.17;42.24;101491.59;4951786;28;20081;-92
2023/09/01 08:36:23;;;;;;;0.20;0.20;;;;;;;27.21;40.42;101477.00;4963585;28;20034;-93
2023/09/01 08:38:48;;;;;;;0.20;0.20;;;;;;;27.27;39.74;101470.22;4964250;28;20503;-88
2023/09/01 08:41:14;;;;;;;0.20;0.20;;;;;;;27.51;38.95;101490.66;4963612;28;20100;-89
2023/09/01 08:43:39;;;;;;;0.15;0.15;;;;;;;27.44;39.58;101485.19;4962802;28;20027;-87
2023/09/01 08:46:08;;;;;;;0.20;0.20;;;;;;;27.22;39.22;101483.13;4963220;28;20492;-94
2023/09/01 08:48:34;;;;;;;0.20;0.20;;;;;;;27.20;38.34;101458.56;4929322;28;20039;-93
2023/09/01 08:51:00;;;;;;;0.20;0.20;;;;;;;27.40;39.00;101471.38;4974730;28;20122;-91
2023/09/01 08:53:25;;;;;;;0.20;0.20;;;;;;;27.57;39.36;101471.41;4957176;28;20409;-87
2023/09/01 08:55:52;;;;;;;0.20;0.20;;;;;;;27.61;37.92;101472.72;4979696;28;20539;-86
2023/09/01 08:58:17;;;;;;;0.20;0.20;;;;;;;27.61;38.14;101457.59;4978483;28;20031;-86
2023/09/01 09:00:44;;;;;;;0.15;0.15;;;;;;;27.76;37.33;101494.19;4979438;28;20034;-87
2023/09/01 09:03:12;;;;;;;0.20;0.20;;;;;;;27.76;37.09;101464.97;4970241;28;20030;-91
2023/09/01 09:05:38;;;;;;;0.20;0.20;;;;;;;27.86;37.57;101476.25;4978922;28;20555;-85
2023/09/01 09:08:04;;;;;;;0.20;0.20;;;;;;;27.89;37.09;101475.91;4976293;28;20030;-88
2023/09/01 09:10:40;;;;;;;0.20;0.20;;;;;;;27.86;36.28;101482.41;4964111;28;20041;-93
2023/09/01 09:13:23;;;;;;;0.20;0.20;;;;;;;27.88;36.58;101474.25;4970184;28;20038;-92
2023/09/01 09:16:10;;;;;;;0.20;0.20;;;;;;;27.90;36.53;101481.06;4978124;28;20043;-91
2023/09/01 09:18:37;;;;;;;0.20;0.20;;;;;;;28.04;35.82;101468.09;4971842;28;20086;-93
2023/09/01 09:21:03;;;;;;;0.20;0.20;;;;;;;28.23;35.47;101479.19;4947790;28;20054;-93
2023/09/01 09:23:45;;;;;;;0.20;0.20;;;;;;;28.15;35.20;101476.53;4965968;28;20038;-91
2023/09/01 09:26:11;;;;;;;0.20;0.20;;;;;;;28.20;35.75;101476.84;4956413;28;20023;-91
2023/09/01 09:28:37;;;;;;;0.13;0.13;;;;;;;28.33;36.14;101465.72;4957012;28;20432;-88
2023/09/01 09:31:02;;;;;;;0.20;0.20;;;;;;;28.39;35.71;101474.84;4972821;28;20026;-89
2023/09/01 09:33:34;;;;;;;0.20;0.20;;;;;;;28.47;35.08;101469.50;4950245;28;20570;-90
2023/09/01 09:36:00;;;;;;;0.20;0.20;;;;;;;28.46;33.94;101455.38;4955621;28;20022;-89
2023/09/01 09:38:43;;;;;;;0.17;0.17;;;;;;;28.43;34.26;101461.03;4969487;28;20062;-91
2023/09/01 09:41:08;;;;;;;0.20;0.20;;;;;;;28.63;34.60;101464.13;4948980;28;20031;-88
2023/09/01 09:43:44;;;;;;;0.20;0.20;;;;;;;28.69;33.11;101463.41;4977041;28;20034;-90
2023/09/01 09:46:09;;;;;;;0.20;0.20;;;;;;;28.48;33.23;101433.91;4980514;28;20043;-88
2023/09/01 09:48:35;;;;;;;0.20;0.20;;;;;;;28.44;32.81;101424.59;4936024;28;20146;-91
2023/09/01 09:51:00;;;;;;;0.20;0.20;;;;;;;28.67;33.94;101451.28;4983577;28;20034;-85
2023/09/01 09:53:26;;;;;;;0.20;0.20;;;;;;;28.84;33.57;101452.88;4961599;28;20057;-87
2023/09/01 09:55:51;;;;;;;0.20;0.20;;;;;;;28.94;33.04;101460.69;4959885;28;20045;-91
2023/09/01 09:58:17;;;;;;;0.20;0.20;;;;;;;29.05;32.92;101466.44;4953345;28;20042;-92
2023/09/01 10:00:45;;;;;;;0.20;0.20;;;;;;;29.20;33.08;101449.66;4959871;28;20049;-90
2023/09/01 10:03:10;;;;;;;0.20;0.20;;;;;;;29.19;33.23;101459.50;4972677;28;20093;-88
2023/09/01 10:05:36;;;;;;;0.20;0.20;;;;;;;29.32;32.64;101453.63;4966051;28;20234;-92
2023/09/01 10:08:03;;;;;;;0.20;0.20;;;;;;;29.47;33.76;101454.47;4950192;28;20030;-89
2023/09/01 10:10:33;;;;;;;0.20;0.20;;;;;;;29.18;34.07;101451.69;4978738;28;20508;-90
2023/09/01 10:13:03;;;;;;;0.20;0.20;;;;;;;29.16;34.12;101454.53;4956144;28;20062;-92
2023/09/01 10:15:33;;;;;;;0.20;0.20;;;;;;;29.16;34.08;101451.03;4950804;28;20110;-89
2023/09/01 10:18:03;;;;;;;0.20;0.20;;;;;;;29.24;34.53;101451.00;4987576;28;20546;-91
2023/09/01 10:20:36;;;;;;;0.20;0.20;;;;;;;29.23;34.27;101439.50;4965900;28;20027;-92
2023/09/01 10:23:05;;;;;;;0.20;0.20;;;;;;;29.14;34.58;101445.91;4939008;29;20090;-89
2023/09/01 10:25:31;;;;;;;0.20;0.20;;;;;;;29.25;34.15;101439.31;4972056;28;20058;-87
2023/09/01 10:28:00;;;;;;;0.20;0.20;;;;;;;29.38;33.86;101442.22;4964959;28;20085;-87
2023/09/01 10:30:26;;;;;;;0.20;0.20;;;;;;;29.49;33.95;101446.31;4973492;28;20041;-90
2023/09/01 10:33:02;;;;;;;0.20;0.20;;;;;;;29.38;33.28;101442.22;4964127;28;20023;-87
2023/09/01 10:35:46;;;;;;;0.20;0.20;;;;;;;29.50;33.02;101451.50;4990836;28;20081;-93
2023/09/01 10:38:21;;;;;;;0.20;0.20;;;;;;;29.54;33.30;101441.31;4977880;28;20036;-91
2023/09/01 10:40:47;;;;;;;0.20;0.20;;;;;;;29.61;32.79;101431.59;4974536;28;20050;-91
2023/09/01 10:43:41;;;;;;;0.20;0.20;;;;;;;29.42;32.25;101406.22;4980740;28;20493;-93
2023/09/01 10:46:12;;;;;;;0.20;0.20;;;;;;;29.63;33.24;101440.22;4968136;28;20194;-92
2023/09/01 10:48:48;;;;;;;0.20;0.20;;;;;;;29.50;33.20;101440.84;4959257;28;20055;-89
2023/09/01 10:51:17;;;;;;;0.20;0.20;;;;;;;29.27;33.73;101438.13;4972105;28;20034;-87
2023/09/01 10:53:42;;;;;;;0.20;0.20;;;;;;;29.33;32.95;101421.44;4950091;28;20117;-91
2023/09/01 10:56:17;;;;;;;0.20;0.20;;;;;;;29.65;32.83;101438.19;4983240;28;20440;-92
2023/09/01 10:58:50;;;;;;;0.20;0.20;;;;;;;29.71;33.03;101432.16;4961200;28;20401;-93
2023/09/01 11:01:28;;;;;;;0.20;0.20;;;;;;;29.68;33.43;101449.31;4942636;28;20508;-89
2023/09/01 11:03:55;;;;;;;0.20;0.20;;;;;;;29.72;32.76;101433.81;4977797;28;20035;-89
2023/09/01 11:06:21;;;;;;;0.20;0.20;;;;;;;29.92;32.74;101429.63;4955836;28;20031;-89
2023/09/01 11:08:58;;;;;;;0.20;0.20;;;;;;;29.77;32.24;101426.09;4955371;28;20042;-90
2023/09/01 11:11:23;;;;;;;0.20;0.20;;;;;;;29.88;32.34;101438.97;4958023;28;20086;-91
2023/09/01 11:13:59;;;;;;;0.20;0.20;;;;;;;29.87;32.13;101428.50;4937624;29;20038;-91
2023/09/01 11:16:24;;;;;;;0.20;0.20;;;;;;;29.83;32.30;101430.69;4969755;28;20111;-90
2023/09/01 11:19:02;;;;;;;0.20;0.20;;;;;;;29.89;32.76;101421.97;4955448;28;20057;-87
2023/09/01 11:21:28;;;;;;;0.20;0.20;;;;;;;29.87;32.93;101407.97;4950598;28;20024;-87
2023/09/01 11:23:58;;;;;;;0.20;0.20;;;;;;;29.83;32.11;101400.53;4937492;28;20046;-88